createdAt,value
2019-02-06T00:01:07.293Z,29.60
2019-02-06T00:03:49.784Z,28.33
2019-02-06T00:06:27.406Z,25.63
2019-02-06T00:09:09.270Z,24.73
2019-02-06T00:11:44.592Z,26.30
2019-02-06T00:14:17.684Z,22.90
2019-02-06T00:16:58.310Z,23.93
2019-02-06T00:19:33.137Z,24.10
2019-02-06T00:22:08.920Z,23.77
2019-02-06T00:24:50.994Z,24.43
2019-02-06T00:27:34.939Z,23.57
2019-02-06T00:30:10.839Z,23.10
2019-02-06T00:32:54.699Z,21.90
2019-02-06T00:35:28.254Z,23.93
2019-02-06T00:38:05.957Z,23.77
2019-02-06T00:40:38.839Z,21.47
2019-02-06T00:43:17.528Z,21.33
2019-02-06T00:45:54.653Z,23.07
2019-02-06T00:48:40.832Z,22.47
2019-02-06T00:51:04.586Z,22.53
2019-02-06T00:53:39.268Z,20.57
2019-02-06T00:56:37.613Z,27.15
2019-02-06T00:59:10.993Z,25.80
2019-02-06T01:01:49.685Z,25.90
2019-02-06T01:04:30.586Z,24.90
2019-02-06T01:07:11.874Z,25.83
2019-02-06T01:09:48.874Z,23.40
2019-02-06T01:12:26.860Z,26.17
2019-02-06T01:15:01.177Z,25.87
2019-02-06T01:17:39.883Z,25.60
2019-02-06T01:20:15.043Z,25.77
2019-02-06T01:23:05.452Z,24.60
2019-02-06T01:25:38.223Z,23.43
2019-02-06T01:28:24.492Z,25.60
2019-02-06T01:36:19.207Z,28.30
2019-02-06T01:39:18.640Z,28.50
2019-02-06T01:41:56.676Z,27.90
2019-02-06T01:44:39.352Z,26.37
2019-02-06T01:47:13.201Z,22.37
2019-02-06T01:49:45.006Z,23.73
2019-02-06T01:52:22.216Z,23.23
2019-02-06T01:54:55.792Z,24.40
2019-02-06T01:57:43.217Z,24.53
2019-02-06T02:00:19.980Z,23.43
2019-02-06T02:02:56.402Z,25.43
2019-02-06T02:05:30.246Z,23.70
2019-02-06T02:08:07.167Z,23.87
2019-02-06T02:10:43.060Z,24.53
2019-02-06T02:13:17.868Z,24.90
2019-02-06T02:15:56.334Z,24.07
2019-02-06T02:18:29.606Z,25.77
2019-02-06T02:21:04.260Z,25.80
2019-02-06T02:23:44.930Z,24.70
2019-02-06T02:29:04.488Z,23.30
2019-02-06T07:42:54.296Z,23.92
2019-02-06T07:50:30.773Z,19.97
2019-02-06T07:53:15.740Z,20.30
2019-02-06T07:56:04.562Z,21.00
2019-02-06T07:59:11.308Z,20.30
2019-02-06T08:01:51.543Z,20.05
2019-02-06T08:04:28.827Z,20.20
2019-02-06T08:07:04.079Z,19.92
2019-02-06T08:09:37.612Z,18.53
2019-02-06T08:12:08.818Z,18.80
2019-02-06T08:14:43.831Z,18.40
2019-02-06T08:17:14.492Z,17.30
2019-02-06T08:30:02.334Z,20.97
2019-02-06T08:32:51.320Z,20.60
2019-02-06T08:35:22.610Z,17.87
2019-02-06T08:37:59.340Z,17.10
2019-02-06T08:40:31.454Z,18.10
2019-02-06T08:43:02.448Z,17.30
2019-02-06T08:45:37.187Z,19.10
2019-02-06T08:48:18.426Z,18.83
2019-02-06T08:51:32.304Z,17.27
2019-02-06T08:54:55.005Z,17.67
2019-02-06T08:57:28.013Z,20.20
2019-02-06T08:59:58.999Z,20.90
2019-02-06T09:02:41.428Z,20.70
2019-02-06T09:05:12.227Z,19.85
2019-02-06T09:12:34.176Z,19.52
2019-02-06T09:19:53.406Z,19.98
2019-02-06T09:27:17.207Z,20.70
2019-02-06T09:37:48.225Z,18.97
2019-02-06T09:45:05.244Z,17.60
2019-02-06T09:48:45.627Z,15.90
2019-02-06T09:52:16.331Z,16.87
2019-02-06T09:55:56.049Z,17.10
2019-02-06T09:58:49.169Z,16.20
2019-02-06T10:01:54.772Z,16.33
2019-02-06T10:04:58.682Z,14.77
2019-02-06T10:08:42.046Z,16.80
2019-02-06T10:11:48.214Z,16.03
2019-02-06T10:14:47.860Z,17.67
2019-02-06T10:18:14.233Z,14.40
2019-02-06T10:21:31.464Z,15.50
2019-02-06T10:24:33.248Z,14.63
2019-02-06T10:34:51.209Z,14.33
2019-02-06T10:38:12.654Z,14.83
2019-02-06T10:51:49.251Z,13.40
2019-02-06T10:55:14.138Z,13.40
2019-02-06T10:58:41.760Z,12.67
2019-02-06T11:01:32.597Z,12.47
2019-02-06T11:05:03.744Z,13.17
2019-02-06T11:07:46.477Z,13.43
2019-02-06T11:10:46.386Z,13.40
2019-02-06T11:13:54.032Z,14.17
2019-02-06T11:16:47.723Z,12.57
2019-02-06T11:19:56.953Z,12.87
2019-02-06T11:22:47.797Z,13.33
2019-02-06T11:25:44.750Z,12.77
2019-02-06T11:28:17.862Z,12.03
2019-02-06T11:31:38.540Z,12.10
2019-02-06T11:34:26.063Z,12.30
2019-02-06T11:37:21.118Z,12.70
2019-02-06T11:39:58.117Z,12.60
2019-02-06T11:43:24.722Z,13.17
2019-02-06T11:46:01.860Z,13.47
2019-02-06T11:48:56.284Z,12.87
2019-02-06T11:52:05.657Z,12.97
2019-02-06T11:55:23.135Z,12.23
2019-02-06T11:58:14.108Z,12.90
2019-02-06T12:01:12.408Z,12.40
2019-02-06T12:04:20.333Z,12.87
2019-02-06T12:06:52.213Z,11.47
2019-02-06T12:09:23.736Z,11.77
2019-02-06T12:12:39.554Z,12.20
2019-02-06T12:19:34.642Z,11.47
2019-02-06T12:22:49.765Z,13.53
2019-02-06T12:25:34.451Z,14.43
2019-02-06T12:28:54.936Z,10.53
2019-02-06T12:31:31.092Z,12.47
2019-02-06T12:34:16.350Z,11.60
2019-02-06T12:37:07.460Z,11.33
2019-02-06T12:39:36.300Z,11.33
2019-02-06T12:43:00.985Z,14.10
2019-02-06T12:45:58.086Z,13.63
2019-02-06T12:49:22.384Z,12.60
2019-02-06T12:56:04.629Z,11.17
2019-02-06T13:02:28.181Z,11.23
2019-02-06T13:05:14.277Z,10.80
2019-02-06T13:08:01.336Z,11.87
2019-02-06T13:10:37.581Z,11.60
2019-02-06T13:13:16.718Z,11.77
2019-02-06T13:16:02.608Z,12.90
2019-02-06T13:18:41.157Z,11.40
2019-02-06T13:21:37.936Z,10.70
2019-02-06T13:24:52.587Z,10.73
2019-02-06T13:27:55.144Z,11.23
2019-02-06T13:30:40.030Z,11.63
2019-02-06T13:33:52.940Z,11.73
2019-02-06T13:36:43.506Z,11.93
2019-02-06T13:39:53.034Z,12.50
2019-02-06T13:42:37.772Z,12.23
2019-02-06T13:46:09.423Z,11.63
2019-02-06T13:49:37.516Z,11.50
2019-02-06T13:56:05.671Z,12.23
2019-02-06T13:58:53.199Z,10.73
2019-02-06T14:01:40.512Z,11.03
2019-02-06T14:04:25.626Z,10.33
2019-02-06T14:08:15.719Z,11.90
2019-02-06T14:11:24.233Z,11.70
2019-02-06T14:15:43.394Z,10.63
2019-02-06T14:20:56.472Z,11.77
2019-02-06T14:24:53.804Z,11.40
2019-02-06T14:28:51.506Z,11.23
2019-02-06T14:32:28.139Z,11.87
2019-02-06T14:35:58.135Z,10.83
2019-02-06T14:39:19.901Z,11.60
2019-02-06T14:42:27.296Z,12.20
2019-02-06T14:46:12.636Z,11.30
2019-02-06T14:49:34.649Z,11.33
2019-02-06T14:53:26.007Z,10.40
2019-02-06T14:56:54.210Z,11.17
2019-02-06T15:00:59.174Z,11.37
2019-02-06T15:08:10.265Z,10.53
2019-02-06T15:12:01.310Z,10.37
2019-02-06T15:15:43.384Z,10.90
2019-02-06T15:19:29.792Z,11.60
2019-02-06T15:26:48.193Z,11.73
2019-02-06T15:51:34.173Z,10.50
2019-02-06T15:55:48.471Z,11.77
2019-02-06T16:15:14.152Z,11.80
2019-02-06T16:23:02.074Z,10.43
2019-02-06T16:31:06.718Z,11.83
2019-02-06T16:38:57.097Z,11.73
2019-02-06T16:46:47.719Z,11.20
2019-02-06T16:50:28.946Z,12.37
2019-02-06T17:22:30.272Z,13.87
2019-02-06T17:46:26.242Z,12.13
2019-02-06T17:50:54.185Z,11.67
2019-02-06T17:57:45.438Z,13.40
2019-02-06T18:20:12.900Z,10.97
2019-02-06T18:23:41.788Z,12.50
2019-02-06T18:26:58.727Z,12.20
2019-02-06T18:30:30.738Z,11.30
2019-02-06T18:34:02.822Z,11.77
2019-02-06T18:44:20.563Z,11.73
2019-02-06T18:51:32.139Z,12.33
2019-02-06T18:55:07.243Z,11.07
2019-02-06T19:01:41.972Z,11.83
2019-02-06T19:04:29.076Z,12.80
2019-02-06T19:07:34.370Z,13.18
2019-02-06T19:15:31.358Z,14.20
2019-02-06T19:18:02.594Z,12.07
2019-02-06T19:20:41.746Z,12.20
2019-02-06T19:23:26.630Z,11.27
2019-02-06T19:26:02.625Z,12.33
2019-02-06T19:29:01.102Z,12.20
2019-02-06T19:32:22.691Z,13.20
2019-02-06T19:36:11.516Z,11.50
2019-02-06T19:40:12.192Z,13.07
2019-02-06T19:47:38.742Z,13.40
2019-02-06T19:50:54.125Z,13.20
2019-02-06T19:53:39.164Z,11.63
2019-02-06T19:56:08.179Z,11.80
2019-02-06T19:58:50.077Z,12.60
2019-02-06T20:01:28.601Z,11.53
2019-02-06T20:04:08.634Z,12.03
2019-02-06T20:06:54.037Z,11.87
2019-02-06T20:09:30.434Z,11.10
2019-02-06T20:12:27.581Z,11.47
2019-02-06T20:15:04.650Z,13.10
2019-02-06T20:17:44.281Z,12.10
2019-02-06T20:20:29.030Z,13.23
2019-02-06T20:23:01.765Z,12.80
2019-02-06T20:25:34.744Z,13.00
2019-02-06T20:28:12.221Z,10.77
2019-02-06T20:30:48.313Z,13.23
2019-02-06T20:33:21.561Z,14.30
2019-02-06T20:36:17.359Z,11.83
2019-02-06T20:38:53.506Z,11.10
2019-02-06T20:41:28.280Z,12.00
2019-02-06T20:44:09.659Z,11.83
2019-02-06T20:47:05.326Z,10.93
2019-02-06T20:49:48.169Z,11.00
2019-02-06T20:52:23.564Z,12.10
2019-02-06T20:54:58.519Z,12.30
2019-02-06T20:57:42.385Z,14.00
2019-02-06T21:00:40.519Z,12.00
2019-02-06T21:03:13.621Z,12.43
2019-02-06T21:06:19.080Z,12.97
2019-02-06T21:08:55.064Z,11.30
2019-02-06T21:11:29.052Z,12.00
2019-02-06T21:13:59.981Z,12.60
2019-02-06T21:16:34.965Z,11.40
2019-02-06T21:19:09.647Z,11.60
2019-02-06T21:21:43.498Z,11.60
2019-02-06T21:24:15.218Z,11.40
2019-02-06T21:26:51.130Z,11.07
2019-02-06T21:29:25.223Z,11.37
2019-02-06T21:32:00.728Z,11.90
2019-02-06T21:34:39.714Z,11.60
2019-02-06T21:37:18.101Z,12.83
2019-02-06T21:39:50.939Z,11.67
2019-02-06T21:42:21.717Z,11.63
2019-02-06T21:44:55.428Z,11.70
2019-02-06T21:47:35.006Z,10.97
2019-02-06T21:50:09.245Z,12.10
2019-02-06T21:52:40.100Z,11.97
2019-02-06T21:55:12.207Z,12.83
2019-02-06T21:57:46.776Z,12.27
2019-02-06T22:00:45.726Z,12.17
2019-02-06T22:03:23.217Z,11.63
2019-02-06T22:05:56.629Z,11.57
2019-02-06T22:08:35.101Z,11.30
2019-02-06T22:11:10.503Z,11.70
2019-02-06T22:14:10.974Z,10.30
2019-02-06T22:16:52.659Z,12.30
2019-02-06T22:19:41.462Z,12.10
2019-02-06T22:22:43.426Z,11.10
2019-02-06T22:25:24.308Z,12.50
2019-02-06T22:28:08.679Z,12.00
2019-02-06T22:30:42.825Z,12.33
2019-02-06T22:33:18.086Z,12.43
2019-02-06T22:35:50.891Z,12.77
2019-02-06T22:38:37.814Z,12.10
2019-02-06T22:41:17.871Z,13.30
2019-02-06T22:43:52.924Z,12.90
2019-02-06T22:46:38.661Z,13.70
2019-02-06T22:49:20.804Z,12.47
2019-02-06T22:51:59.580Z,14.37
2019-02-06T22:54:30.948Z,11.50
2019-02-06T22:57:10.083Z,12.37
2019-02-06T22:59:47.146Z,13.83
2019-02-06T23:02:34.627Z,14.03
2019-02-06T23:05:33.123Z,13.80
2019-02-06T23:08:22.109Z,14.87
2019-02-06T23:11:09.875Z,13.83
2019-02-06T23:13:44.018Z,14.43
2019-02-06T23:16:25.212Z,14.60
2019-02-06T23:19:00.845Z,13.80
2019-02-06T23:21:36.301Z,12.50
2019-02-06T23:24:17.570Z,13.03
2019-02-06T23:27:07.883Z,13.73
2019-02-06T23:29:45.038Z,13.97
2019-02-06T23:32:39.406Z,14.53
2019-02-06T23:35:11.348Z,13.90
2019-02-06T23:38:00.646Z,14.13
2019-02-06T23:41:06.932Z,14.37
2019-02-06T23:43:42.953Z,14.43
2019-02-06T23:46:31.468Z,14.10
2019-02-06T23:49:17.992Z,13.50
2019-02-06T23:52:05.337Z,14.17
2019-02-06T23:54:44.520Z,15.87
2019-02-06T23:57:24.515Z,13.33
2019-02-06T23:59:59.108Z,15.00
